sensor_id;sensor_type;location;lat;lon;timestamp;P1;durP1;ratioP1;P2;durP2;ratioP2
20369;SDS011;10344;47.592;9.600;2023-03-08T00:01:25;14.00;;;10.32;;
20369;SDS011;10344;47.592;9.600;2023-03-08T00:03:54;15.35;;;10.55;;
20369;SDS011;10344;47.592;9.600;2023-03-08T00:06:25;15.23;;;9.65;;
20369;SDS011;10344;47.592;9.600;2023-03-08T00:08:54;12.90;;;10.17;;
20369;SDS011;10344;47.592;9.600;2023-03-08T00:11:22;15.02;;;10.55;;
20369;SDS011;10344;47.592;9.600;2023-03-08T00:13:49;14.77;;;10.30;;
20369;SDS011;10344;47.592;9.600;2023-03-08T00:19:14;13.40;;;9.63;;
20369;SDS011;10344;47.592;9.600;2023-03-08T00:21:40;13.57;;;9.43;;
20369;SDS011;10344;47.592;9.600;2023-03-08T00:24:06;14.23;;;10.27;;
20369;SDS011;10344;47.592;9.600;2023-03-08T00:26:31;14.32;;;9.88;;
20369;SDS011;10344;47.592;9.600;2023-03-08T00:28:57;13.40;;;9.93;;
20369;SDS011;10344;47.592;9.600;2023-03-08T00:31:29;15.23;;;10.68;;
20369;SDS011;10344;47.592;9.600;2023-03-08T00:33:55;13.37;;;9.00;;
20369;SDS011;10344;47.592;9.600;2023-03-08T00:36:25;13.33;;;9.93;;
20369;SDS011;10344;47.592;9.600;2023-03-08T00:38:55;12.52;;;9.90;;
20369;SDS011;10344;47.592;9.600;2023-03-08T00:41:22;13.15;;;9.75;;
20369;SDS011;10344;47.592;9.600;2023-03-08T00:43:48;11.82;;;8.77;;
20369;SDS011;10344;47.592;9.600;2023-03-08T00:46:18;13.85;;;9.90;;
20369;SDS011;10344;47.592;9.600;2023-03-08T00:48:46;11.63;;;9.10;;
20369;SDS011;10344;47.592;9.600;2023-03-08T00:51:12;13.02;;;9.98;;
20369;SDS011;10344;47.592;9.600;2023-03-08T00:53:39;12.93;;;9.50;;
20369;SDS011;10344;47.592;9.600;2023-03-08T00:56:05;15.40;;;10.07;;
20369;SDS011;10344;47.592;9.600;2023-03-08T00:58:31;14.73;;;10.83;;
20369;SDS011;10344;47.592;9.600;2023-03-08T01:00:57;13.90;;;10.25;;
20369;SDS011;10344;47.592;9.600;2023-03-08T01:03:23;14.40;;;10.32;;
20369;SDS011;10344;47.592;9.600;2023-03-08T01:05:53;14.13;;;10.68;;
20369;SDS011;10344;47.592;9.600;2023-03-08T01:08:20;13.93;;;9.98;;
20369;SDS011;10344;47.592;9.600;2023-03-08T01:10:51;14.23;;;10.10;;
20369;SDS011;10344;47.592;9.600;2023-03-08T01:13:18;12.52;;;9.93;;
20369;SDS011;10344;47.592;9.600;2023-03-08T01:15:47;13.43;;;10.15;;
20369;SDS011;10344;47.592;9.600;2023-03-08T01:18:15;13.20;;;10.38;;
20369;SDS011;10344;47.592;9.600;2023-03-08T01:20:41;12.75;;;9.82;;
20369;SDS011;10344;47.592;9.600;2023-03-08T01:23:07;13.30;;;9.77;;
20369;SDS011;10344;47.592;9.600;2023-03-08T01:25:33;13.20;;;9.83;;
20369;SDS011;10344;47.592;9.600;2023-03-08T01:27:59;13.95;;;10.05;;
20369;SDS011;10344;47.592;9.600;2023-03-08T01:30:27;11.57;;;9.03;;
20369;SDS011;10344;47.592;9.600;2023-03-08T01:32:53;13.27;;;10.38;;
20369;SDS011;10344;47.592;9.600;2023-03-08T01:35:18;13.70;;;10.07;;
20369;SDS011;10344;47.592;9.600;2023-03-08T01:37:50;14.98;;;10.65;;
20369;SDS011;10344;47.592;9.600;2023-03-08T01:40:20;14.13;;;10.55;;
20369;SDS011;10344;47.592;9.600;2023-03-08T01:42:47;13.45;;;9.32;;
20369;SDS011;10344;47.592;9.600;2023-03-08T01:48:15;15.02;;;10.63;;
20369;SDS011;10344;47.592;9.600;2023-03-08T01:50:41;13.63;;;10.27;;
20369;SDS011;10344;47.592;9.600;2023-03-08T01:53:15;12.38;;;8.85;;
20369;SDS011;10344;47.592;9.600;2023-03-08T01:55:41;12.98;;;9.85;;
20369;SDS011;10344;47.592;9.600;2023-03-08T01:58:06;12.48;;;9.73;;
20369;SDS011;10344;47.592;9.600;2023-03-08T02:00:32;13.45;;;10.20;;
20369;SDS011;10344;47.592;9.600;2023-03-08T02:03:03;13.40;;;9.80;;
20369;SDS011;10344;47.592;9.600;2023-03-08T02:05:32;11.93;;;8.77;;
20369;SDS011;10344;47.592;9.600;2023-03-08T02:08:09;14.32;;;10.52;;
20369;SDS011;10344;47.592;9.600;2023-03-08T02:10:34;16.08;;;10.73;;
20369;SDS011;10344;47.592;9.600;2023-03-08T02:13:03;11.60;;;8.98;;
20369;SDS011;10344;47.592;9.600;2023-03-08T02:15:31;10.35;;;8.50;;
20369;SDS011;10344;47.592;9.600;2023-03-08T02:17:59;13.83;;;9.50;;
20369;SDS011;10344;47.592;9.600;2023-03-08T02:20:38;12.32;;;9.05;;
20369;SDS011;10344;47.592;9.600;2023-03-08T02:23:09;11.98;;;8.77;;
20369;SDS011;10344;47.592;9.600;2023-03-08T02:25:40;13.05;;;9.60;;
20369;SDS011;10344;47.592;9.600;2023-03-08T02:28:14;14.07;;;9.73;;
20369;SDS011;10344;47.592;9.600;2023-03-08T02:30:39;13.63;;;9.88;;
20369;SDS011;10344;47.592;9.600;2023-03-08T02:33:07;10.90;;;8.32;;
20369;SDS011;10344;47.592;9.600;2023-03-08T02:35:35;12.20;;;8.93;;
20369;SDS011;10344;47.592;9.600;2023-03-08T02:38:03;10.93;;;8.25;;
20369;SDS011;10344;47.592;9.600;2023-03-08T02:40:29;11.82;;;9.15;;
20369;SDS011;10344;47.592;9.600;2023-03-08T02:42:54;12.03;;;8.50;;
20369;SDS011;10344;47.592;9.600;2023-03-08T02:45:20;11.52;;;8.95;;
20369;SDS011;10344;47.592;9.600;2023-03-08T02:47:51;10.63;;;8.02;;
20369;SDS011;10344;47.592;9.600;2023-03-08T02:50:16;10.57;;;8.60;;
20369;SDS011;10344;47.592;9.600;2023-03-08T02:52:47;10.52;;;8.27;;
20369;SDS011;10344;47.592;9.600;2023-03-08T02:55:13;11.23;;;8.25;;
20369;SDS011;10344;47.592;9.600;2023-03-08T02:57:39;12.97;;;9.97;;
20369;SDS011;10344;47.592;9.600;2023-03-08T03:00:05;9.65;;;7.47;;
20369;SDS011;10344;47.592;9.600;2023-03-08T03:02:32;13.38;;;9.18;;
20369;SDS011;10344;47.592;9.600;2023-03-08T03:04:58;11.63;;;8.85;;
20369;SDS011;10344;47.592;9.600;2023-03-08T03:07:23;12.17;;;8.57;;
20369;SDS011;10344;47.592;9.600;2023-03-08T03:09:53;11.98;;;9.20;;
20369;SDS011;10344;47.592;9.600;2023-03-08T03:12:18;10.88;;;8.10;;
20369;SDS011;10344;47.592;9.600;2023-03-08T03:14:44;12.75;;;9.45;;
20369;SDS011;10344;47.592;9.600;2023-03-08T03:17:09;11.40;;;8.93;;
20369;SDS011;10344;47.592;9.600;2023-03-08T03:19:36;12.43;;;9.30;;
20369;SDS011;10344;47.592;9.600;2023-03-08T03:22:04;14.40;;;9.63;;
20369;SDS011;10344;47.592;9.600;2023-03-08T03:24:32;13.13;;;10.00;;
20369;SDS011;10344;47.592;9.600;2023-03-08T03:26:57;13.20;;;10.07;;
20369;SDS011;10344;47.592;9.600;2023-03-08T03:29:23;13.67;;;10.50;;
20369;SDS011;10344;47.592;9.600;2023-03-08T03:31:49;12.98;;;9.93;;
20369;SDS011;10344;47.592;9.600;2023-03-08T03:34:14;12.07;;;9.80;;
20369;SDS011;10344;47.592;9.600;2023-03-08T03:36:40;12.40;;;9.30;;
20369;SDS011;10344;47.592;9.600;2023-03-08T03:39:05;13.70;;;9.52;;
20369;SDS011;10344;47.592;9.600;2023-03-08T03:41:31;14.90;;;10.07;;
20369;SDS011;10344;47.592;9.600;2023-03-08T03:43:57;12.90;;;9.80;;
20369;SDS011;10344;47.592;9.600;2023-03-08T03:46:24;16.17;;;11.18;;
20369;SDS011;10344;47.592;9.600;2023-03-08T03:48:52;13.95;;;10.60;;
20369;SDS011;10344;47.592;9.600;2023-03-08T03:51:19;15.15;;;10.60;;
20369;SDS011;10344;47.592;9.600;2023-03-08T03:53:46;14.07;;;10.75;;
20369;SDS011;10344;47.592;9.600;2023-03-08T03:56:13;14.30;;;11.10;;
20369;SDS011;10344;47.592;9.600;2023-03-08T03:58:48;14.75;;;10.82;;
20369;SDS011;10344;47.592;9.600;2023-03-08T04:01:24;17.00;;;11.87;;
20369;SDS011;10344;47.592;9.600;2023-03-08T04:03:53;15.15;;;10.65;;
20369;SDS011;10344;47.592;9.600;2023-03-08T04:06:25;15.40;;;11.30;;
20369;SDS011;10344;47.592;9.600;2023-03-08T04:09:04;14.70;;;10.60;;
20369;SDS011;10344;47.592;9.600;2023-03-08T04:11:32;14.30;;;10.77;;
20369;SDS011;10344;47.592;9.600;2023-03-08T04:14:03;16.50;;;11.82;;
20369;SDS011;10344;47.592;9.600;2023-03-08T04:16:37;15.60;;;12.00;;
20369;SDS011;10344;47.592;9.600;2023-03-08T04:19:05;16.35;;;11.50;;
20369;SDS011;10344;47.592;9.600;2023-03-08T04:21:34;17.13;;;11.70;;
20369;SDS011;10344;47.592;9.600;2023-03-08T04:24:04;14.63;;;11.02;;
20369;SDS011;10344;47.592;9.600;2023-03-08T04:26:32;16.52;;;11.25;;
20369;SDS011;10344;47.592;9.600;2023-03-08T04:29:09;16.83;;;11.70;;
20369;SDS011;10344;47.592;9.600;2023-03-08T04:31:43;16.53;;;12.33;;
20369;SDS011;10344;47.592;9.600;2023-03-08T04:34:14;17.15;;;12.85;;
20369;SDS011;10344;47.592;9.600;2023-03-08T04:36:46;19.83;;;13.70;;
20369;SDS011;10344;47.592;9.600;2023-03-08T04:39:35;17.88;;;12.70;;
20369;SDS011;10344;47.592;9.600;2023-03-08T04:42:07;19.42;;;13.32;;
20369;SDS011;10344;47.592;9.600;2023-03-08T04:44:42;19.40;;;12.80;;
20369;SDS011;10344;47.592;9.600;2023-03-08T04:47:32;17.20;;;12.60;;
20369;SDS011;10344;47.592;9.600;2023-03-08T04:49:59;16.80;;;12.83;;
20369;SDS011;10344;47.592;9.600;2023-03-08T04:52:28;17.05;;;12.55;;
20369;SDS011;10344;47.592;9.600;2023-03-08T04:54:54;17.20;;;12.60;;
20369;SDS011;10344;47.592;9.600;2023-03-08T04:57:20;16.70;;;11.80;;
20369;SDS011;10344;47.592;9.600;2023-03-08T04:59:46;15.93;;;11.27;;
20369;SDS011;10344;47.592;9.600;2023-03-08T05:02:14;16.83;;;11.80;;
20369;SDS011;10344;47.592;9.600;2023-03-08T05:04:40;18.08;;;12.93;;
20369;SDS011;10344;47.592;9.600;2023-03-08T05:07:05;19.10;;;12.90;;
20369;SDS011;10344;47.592;9.600;2023-03-08T05:09:39;18.90;;;13.43;;
20369;SDS011;10344;47.592;9.600;2023-03-08T05:12:05;16.55;;;12.68;;
20369;SDS011;10344;47.592;9.600;2023-03-08T05:17:28;19.83;;;13.00;;
20369;SDS011;10344;47.592;9.600;2023-03-08T05:19:58;17.45;;;12.30;;
20369;SDS011;10344;47.592;9.600;2023-03-08T05:22:24;15.38;;;11.68;;
20369;SDS011;10344;47.592;9.600;2023-03-08T05:24:50;15.23;;;11.55;;
20369;SDS011;10344;47.592;9.600;2023-03-08T05:27:16;17.30;;;12.35;;
20369;SDS011;10344;47.592;9.600;2023-03-08T05:29:42;16.65;;;12.30;;
20369;SDS011;10344;47.592;9.600;2023-03-08T05:32:11;18.90;;;13.45;;
20369;SDS011;10344;47.592;9.600;2023-03-08T05:34:37;15.23;;;11.40;;
20369;SDS011;10344;47.592;9.600;2023-03-08T05:37:02;15.13;;;11.00;;
20369;SDS011;10344;47.592;9.600;2023-03-08T05:39:28;17.42;;;11.90;;
20369;SDS011;10344;47.592;9.600;2023-03-08T05:41:59;17.38;;;12.60;;
20369;SDS011;10344;47.592;9.600;2023-03-08T05:44:24;16.17;;;12.40;;
20369;SDS011;10344;47.592;9.600;2023-03-08T05:46:52;16.63;;;12.43;;
20369;SDS011;10344;47.592;9.600;2023-03-08T05:49:18;16.52;;;12.98;;
20369;SDS011;10344;47.592;9.600;2023-03-08T05:51:46;15.30;;;11.23;;
20369;SDS011;10344;47.592;9.600;2023-03-08T05:54:11;15.23;;;10.70;;
20369;SDS011;10344;47.592;9.600;2023-03-08T05:56:37;15.75;;;11.52;;
20369;SDS011;10344;47.592;9.600;2023-03-08T05:59:07;17.17;;;12.60;;
20369;SDS011;10344;47.592;9.600;2023-03-08T06:01:33;15.10;;;11.10;;
20369;SDS011;10344;47.592;9.600;2023-03-08T06:03:58;16.88;;;12.20;;
20369;SDS011;10344;47.592;9.600;2023-03-08T06:06:27;15.50;;;11.13;;
20369;SDS011;10344;47.592;9.600;2023-03-08T06:08:58;17.15;;;12.63;;
20369;SDS011;10344;47.592;9.600;2023-03-08T06:11:24;16.83;;;12.45;;
20369;SDS011;10344;47.592;9.600;2023-03-08T06:13:55;18.27;;;13.00;;
20369;SDS011;10344;47.592;9.600;2023-03-08T06:16:20;17.80;;;12.77;;
20369;SDS011;10344;47.592;9.600;2023-03-08T06:18:46;15.38;;;11.52;;
20369;SDS011;10344;47.592;9.600;2023-03-08T06:21:13;16.83;;;13.10;;
20369;SDS011;10344;47.592;9.600;2023-03-08T06:23:43;17.73;;;13.15;;
20369;SDS011;10344;47.592;9.600;2023-03-08T06:26:18;16.13;;;13.13;;
20369;SDS011;10344;47.592;9.600;2023-03-08T06:28:44;17.85;;;12.98;;
20369;SDS011;10344;47.592;9.600;2023-03-08T06:31:15;18.15;;;12.82;;
20369;SDS011;10344;47.592;9.600;2023-03-08T06:33:46;15.68;;;11.75;;
20369;SDS011;10344;47.592;9.600;2023-03-08T06:36:12;19.30;;;13.37;;
20369;SDS011;10344;47.592;9.600;2023-03-08T06:38:42;24.02;;;15.05;;
20369;SDS011;10344;47.592;9.600;2023-03-08T06:41:09;27.58;;;17.05;;
20369;SDS011;10344;47.592;9.600;2023-03-08T06:43:42;29.20;;;17.30;;
20369;SDS011;10344;47.592;9.600;2023-03-08T06:46:13;23.15;;;15.18;;
20369;SDS011;10344;47.592;9.600;2023-03-08T06:48:44;17.52;;;13.23;;
20369;SDS011;10344;47.592;9.600;2023-03-08T06:51:13;20.70;;;14.10;;
20369;SDS011;10344;47.592;9.600;2023-03-08T06:53:44;20.02;;;13.50;;
20369;SDS011;10344;47.592;9.600;2023-03-08T06:56:16;18.63;;;13.65;;
20369;SDS011;10344;47.592;9.600;2023-03-08T06:58:48;18.40;;;13.88;;
20369;SDS011;10344;47.592;9.600;2023-03-08T07:01:19;21.83;;;14.90;;
20369;SDS011;10344;47.592;9.600;2023-03-08T07:03:44;18.35;;;13.52;;
20369;SDS011;10344;47.592;9.600;2023-03-08T07:06:12;20.17;;;14.27;;
20369;SDS011;10344;47.592;9.600;2023-03-08T07:08:39;17.63;;;12.93;;
20369;SDS011;10344;47.592;9.600;2023-03-08T07:11:13;17.02;;;12.20;;
20369;SDS011;10344;47.592;9.600;2023-03-08T07:13:38;19.33;;;13.70;;
20369;SDS011;10344;47.592;9.600;2023-03-08T07:16:12;17.95;;;12.90;;
20369;SDS011;10344;47.592;9.600;2023-03-08T07:18:45;18.33;;;13.40;;
20369;SDS011;10344;47.592;9.600;2023-03-08T07:21:11;14.98;;;11.77;;
20369;SDS011;10344;47.592;9.600;2023-03-08T07:23:36;17.55;;;12.80;;
20369;SDS011;10344;47.592;9.600;2023-03-08T07:26:03;16.15;;;12.32;;
20369;SDS011;10344;47.592;9.600;2023-03-08T07:28:35;17.27;;;12.60;;
20369;SDS011;10344;47.592;9.600;2023-03-08T07:31:01;18.58;;;13.02;;
20369;SDS011;10344;47.592;9.600;2023-03-08T07:33:26;16.50;;;12.48;;
20369;SDS011;10344;47.592;9.600;2023-03-08T07:35:57;17.23;;;11.87;;
20369;SDS011;10344;47.592;9.600;2023-03-08T07:38:25;17.98;;;13.50;;
20369;SDS011;10344;47.592;9.600;2023-03-08T07:40:55;17.63;;;12.53;;
20369;SDS011;10344;47.592;9.600;2023-03-08T07:43:22;21.38;;;13.68;;
20369;SDS011;10344;47.592;9.600;2023-03-08T07:45:47;15.43;;;12.10;;
20369;SDS011;10344;47.592;9.600;2023-03-08T07:48:15;16.77;;;12.85;;
20369;SDS011;10344;47.592;9.600;2023-03-08T07:50:47;17.77;;;12.75;;
20369;SDS011;10344;47.592;9.600;2023-03-08T07:53:12;17.47;;;12.97;;
20369;SDS011;10344;47.592;9.600;2023-03-08T07:55:39;15.07;;;11.30;;
20369;SDS011;10344;47.592;9.600;2023-03-08T07:58:08;17.55;;;12.27;;
20369;SDS011;10344;47.592;9.600;2023-03-08T08:00:33;16.38;;;10.93;;
20369;SDS011;10344;47.592;9.600;2023-03-08T08:03:02;17.50;;;12.15;;
20369;SDS011;10344;47.592;9.600;2023-03-08T08:05:27;19.08;;;13.88;;
20369;SDS011;10344;47.592;9.600;2023-03-08T08:08:00;15.13;;;11.82;;
20369;SDS011;10344;47.592;9.600;2023-03-08T08:10:28;16.52;;;12.00;;
20369;SDS011;10344;47.592;9.600;2023-03-08T08:12:59;16.65;;;11.93;;
20369;SDS011;10344;47.592;9.600;2023-03-08T08:15:25;17.25;;;11.88;;
20369;SDS011;10344;47.592;9.600;2023-03-08T08:17:51;16.07;;;11.67;;
20369;SDS011;10344;47.592;9.600;2023-03-08T08:20:16;15.27;;;11.93;;
20369;SDS011;10344;47.592;9.600;2023-03-08T08:22:46;15.02;;;11.48;;
20369;SDS011;10344;47.592;9.600;2023-03-08T08:25:23;13.60;;;10.77;;
20369;SDS011;10344;47.592;9.600;2023-03-08T08:27:49;16.15;;;11.68;;
20369;SDS011;10344;47.592;9.600;2023-03-08T08:30:26;14.63;;;10.70;;
20369;SDS011;10344;47.592;9.600;2023-03-08T08:32:51;16.38;;;12.23;;
20369;SDS011;10344;47.592;9.600;2023-03-08T08:35:17;16.73;;;12.00;;
20369;SDS011;10344;47.592;9.600;2023-03-08T08:37:48;13.95;;;11.25;;
20369;SDS011;10344;47.592;9.600;2023-03-08T08:40:14;17.07;;;12.03;;
20369;SDS011;10344;47.592;9.600;2023-03-08T08:42:47;16.55;;;12.07;;
20369;SDS011;10344;47.592;9.600;2023-03-08T08:45:13;13.27;;;10.60;;
20369;SDS011;10344;47.592;9.600;2023-03-08T08:47:38;14.98;;;11.82;;
20369;SDS011;10344;47.592;9.600;2023-03-08T08:50:04;16.65;;;11.95;;
20369;SDS011;10344;47.592;9.600;2023-03-08T08:52:37;17.05;;;12.85;;
20369;SDS011;10344;47.592;9.600;2023-03-08T08:55:03;16.53;;;12.67;;
20369;SDS011;10344;47.592;9.600;2023-03-08T08:57:29;15.40;;;11.88;;
20369;SDS011;10344;47.592;9.600;2023-03-08T08:59:57;18.15;;;12.80;;
20369;SDS011;10344;47.592;9.600;2023-03-08T09:02:25;17.60;;;12.37;;
20369;SDS011;10344;47.592;9.600;2023-03-08T09:04:53;19.92;;;13.52;;
20369;SDS011;10344;47.592;9.600;2023-03-08T09:07:25;18.95;;;13.77;;
20369;SDS011;10344;47.592;9.600;2023-03-08T09:09:52;19.73;;;13.90;;
20369;SDS011;10344;47.592;9.600;2023-03-08T09:12:25;15.20;;;11.40;;
20369;SDS011;10344;47.592;9.600;2023-03-08T09:14:52;17.38;;;12.50;;
20369;SDS011;10344;47.592;9.600;2023-03-08T09:17:26;17.63;;;12.83;;
20369;SDS011;10344;47.592;9.600;2023-03-08T09:20:00;15.43;;;12.18;;
20369;SDS011;10344;47.592;9.600;2023-03-08T09:22:30;17.27;;;13.02;;
20369;SDS011;10344;47.592;9.600;2023-03-08T09:25:02;13.10;;;10.40;;
20369;SDS011;10344;47.592;9.600;2023-03-08T09:27:29;15.98;;;12.25;;
20369;SDS011;10344;47.592;9.600;2023-03-08T09:29:58;13.90;;;11.35;;
20369;SDS011;10344;47.592;9.600;2023-03-08T09:32:24;13.98;;;10.98;;
20369;SDS011;10344;47.592;9.600;2023-03-08T09:34:50;12.32;;;9.98;;
20369;SDS011;10344;47.592;9.600;2023-03-08T09:37:16;12.75;;;9.80;;
20369;SDS011;10344;47.592;9.600;2023-03-08T09:39:50;13.07;;;10.35;;
20369;SDS011;10344;47.592;9.600;2023-03-08T09:42:33;16.83;;;11.55;;
20369;SDS011;10344;47.592;9.600;2023-03-08T09:58:53;15.05;;;11.57;;
20369;SDS011;10344;47.592;9.600;2023-03-08T10:04:17;14.43;;;11.85;;
20369;SDS011;10344;47.592;9.600;2023-03-08T10:07:09;15.50;;;10.88;;
20369;SDS011;10344;47.592;9.600;2023-03-08T10:10:05;14.70;;;10.90;;
20369;SDS011;10344;47.592;9.600;2023-03-08T10:12:57;14.90;;;11.18;;
20369;SDS011;10344;47.592;9.600;2023-03-08T10:15:39;15.63;;;11.50;;
20369;SDS011;10344;47.592;9.600;2023-03-08T10:18:36;14.70;;;11.55;;
20369;SDS011;10344;47.592;9.600;2023-03-08T10:21:08;15.50;;;11.60;;
20369;SDS011;10344;47.592;9.600;2023-03-08T10:23:37;16.13;;;11.65;;
20369;SDS011;10344;47.592;9.600;2023-03-08T10:26:12;14.90;;;11.40;;
20369;SDS011;10344;47.592;9.600;2023-03-08T10:28:39;16.33;;;11.18;;
20369;SDS011;10344;47.592;9.600;2023-03-08T10:34:08;16.58;;;11.40;;
20369;SDS011;10344;47.592;9.600;2023-03-08T10:36:49;14.90;;;11.27;;
20369;SDS011;10344;47.592;9.600;2023-03-08T10:39:26;15.77;;;11.02;;
20369;SDS011;10344;47.592;9.600;2023-03-08T10:41:53;16.97;;;11.83;;
20369;SDS011;10344;47.592;9.600;2023-03-08T10:44:31;11.68;;;10.35;;
20369;SDS011;10344;47.592;9.600;2023-03-08T10:47:03;13.73;;;10.50;;
20369;SDS011;10344;47.592;9.600;2023-03-08T10:49:44;14.90;;;10.27;;
20369;SDS011;10344;47.592;9.600;2023-03-08T10:52:29;11.75;;;9.63;;
20369;SDS011;10344;47.592;9.600;2023-03-08T10:55:15;11.70;;;9.38;;
20369;SDS011;10344;47.592;9.600;2023-03-08T10:57:54;13.68;;;9.65;;
20369;SDS011;10344;47.592;9.600;2023-03-08T11:00:35;14.48;;;10.60;;
20369;SDS011;10344;47.592;9.600;2023-03-08T11:03:19;10.85;;;9.32;;
20369;SDS011;10344;47.592;9.600;2023-03-08T11:05:50;13.10;;;9.70;;
20369;SDS011;10344;47.592;9.600;2023-03-08T11:08:39;14.02;;;10.68;;
20369;SDS011;10344;47.592;9.600;2023-03-08T11:11:20;10.70;;;8.68;;
20369;SDS011;10344;47.592;9.600;2023-03-08T11:13:47;12.60;;;9.90;;
20369;SDS011;10344;47.592;9.600;2023-03-08T11:16:49;13.18;;;9.95;;
20369;SDS011;10344;47.592;9.600;2023-03-08T11:36:23;15.38;;;10.98;;
20369;SDS011;10344;47.592;9.600;2023-03-08T11:55:32;13.80;;;11.25;;
20369;SDS011;10344;47.592;9.600;2023-03-08T12:00:49;12.68;;;9.95;;
20369;SDS011;10344;47.592;9.600;2023-03-08T12:03:31;13.00;;;10.13;;
20369;SDS011;10344;47.592;9.600;2023-03-08T12:06:03;13.02;;;9.00;;
20369;SDS011;10344;47.592;9.600;2023-03-08T12:11:10;12.47;;;9.40;;
20369;SDS011;10344;47.592;9.600;2023-03-08T12:13:49;12.25;;;9.70;;
20369;SDS011;10344;47.592;9.600;2023-03-08T12:33:00;13.07;;;10.00;;
20369;SDS011;10344;47.592;9.600;2023-03-08T12:35:36;12.82;;;10.43;;
20369;SDS011;10344;47.592;9.600;2023-03-08T12:40:48;13.38;;;10.40;;
20369;SDS011;10344;47.592;9.600;2023-03-08T12:56:15;13.40;;;9.82;;
20369;SDS011;10344;47.592;9.600;2023-03-08T12:58:58;9.57;;;7.90;;
20369;SDS011;10344;47.592;9.600;2023-03-08T13:01:35;11.63;;;8.90;;
20369;SDS011;10344;47.592;9.600;2023-03-08T13:04:24;9.93;;;8.02;;
20369;SDS011;10344;47.592;9.600;2023-03-08T13:10:19;8.20;;;6.72;;
20369;SDS011;10344;47.592;9.600;2023-03-08T13:15:37;8.23;;;6.57;;
20369;SDS011;10344;47.592;9.600;2023-03-08T13:18:12;8.30;;;6.70;;
20369;SDS011;10344;47.592;9.600;2023-03-08T13:23:37;8.25;;;6.40;;
20369;SDS011;10344;47.592;9.600;2023-03-08T13:28:59;6.68;;;5.85;;
20369;SDS011;10344;47.592;9.600;2023-03-08T13:31:29;6.95;;;6.20;;
20369;SDS011;10344;47.592;9.600;2023-03-08T13:33:57;7.57;;;5.88;;
20369;SDS011;10344;47.592;9.600;2023-03-08T13:36:24;6.10;;;5.13;;
20369;SDS011;10344;47.592;9.600;2023-03-08T13:39:21;6.95;;;5.45;;
20369;SDS011;10344;47.592;9.600;2023-03-08T13:42:04;6.05;;;4.82;;
20369;SDS011;10344;47.592;9.600;2023-03-08T13:44:37;5.65;;;4.25;;
20369;SDS011;10344;47.592;9.600;2023-03-08T13:50:04;5.97;;;4.10;;
20369;SDS011;10344;47.592;9.600;2023-03-08T13:52:39;5.50;;;4.28;;
20369;SDS011;10344;47.592;9.600;2023-03-08T13:55:13;5.43;;;3.97;;
20369;SDS011;10344;47.592;9.600;2023-03-08T13:57:49;4.80;;;4.03;;
20369;SDS011;10344;47.592;9.600;2023-03-08T14:02:48;4.85;;;3.95;;
20369;SDS011;10344;47.592;9.600;2023-03-08T14:05:18;3.83;;;3.40;;
20369;SDS011;10344;47.592;9.600;2023-03-08T14:08:22;4.30;;;3.53;;
20369;SDS011;10344;47.592;9.600;2023-03-08T14:13:18;4.60;;;3.90;;
20369;SDS011;10344;47.592;9.600;2023-03-08T14:15:54;4.30;;;3.87;;
20369;SDS011;10344;47.592;9.600;2023-03-08T14:18:26;4.88;;;4.00;;
20369;SDS011;10344;47.592;9.600;2023-03-08T14:21:01;5.90;;;3.88;;
20369;SDS011;10344;47.592;9.600;2023-03-08T14:23:32;5.10;;;3.90;;
20369;SDS011;10344;47.592;9.600;2023-03-08T14:28:47;4.28;;;3.50;;
20369;SDS011;10344;47.592;9.600;2023-03-08T14:31:26;4.50;;;3.92;;
20369;SDS011;10344;47.592;9.600;2023-03-08T14:34:00;4.50;;;3.90;;
20369;SDS011;10344;47.592;9.600;2023-03-08T14:36:27;4.33;;;3.60;;
20369;SDS011;10344;47.592;9.600;2023-03-08T14:39:00;3.67;;;3.38;;
20369;SDS011;10344;47.592;9.600;2023-03-08T14:41:35;4.65;;;4.20;;
20369;SDS011;10344;47.592;9.600;2023-03-08T14:44:01;3.72;;;3.20;;
20369;SDS011;10344;47.592;9.600;2023-03-08T14:46:38;5.15;;;3.60;;
20369;SDS011;10344;47.592;9.600;2023-03-08T14:49:24;3.70;;;3.30;;
20369;SDS011;10344;47.592;9.600;2023-03-08T14:51:51;3.45;;;3.00;;
20369;SDS011;10344;47.592;9.600;2023-03-08T14:57:15;3.97;;;3.47;;
20369;SDS011;10344;47.592;9.600;2023-03-08T15:00:00;3.90;;;3.50;;
20369;SDS011;10344;47.592;9.600;2023-03-08T15:02:38;4.07;;;3.50;;
20369;SDS011;10344;47.592;9.600;2023-03-08T15:05:16;3.95;;;3.55;;
20369;SDS011;10344;47.592;9.600;2023-03-08T15:07:50;3.75;;;3.45;;
20369;SDS011;10344;47.592;9.600;2023-03-08T15:10:50;4.03;;;3.65;;
20369;SDS011;10344;47.592;9.600;2023-03-08T15:13:15;4.67;;;3.73;;
20369;SDS011;10344;47.592;9.600;2023-03-08T15:15:46;4.25;;;3.55;;
20369;SDS011;10344;47.592;9.600;2023-03-08T15:18:12;4.30;;;3.50;;
20369;SDS011;10344;47.592;9.600;2023-03-08T15:20:54;4.03;;;3.63;;
20369;SDS011;10344;47.592;9.600;2023-03-08T15:23:23;4.18;;;3.63;;
20369;SDS011;10344;47.592;9.600;2023-03-08T15:25:50;6.55;;;5.25;;
20369;SDS011;10344;47.592;9.600;2023-03-08T15:28:17;5.15;;;3.75;;
20369;SDS011;10344;47.592;9.600;2023-03-08T15:30:53;4.82;;;3.85;;
20369;SDS011;10344;47.592;9.600;2023-03-08T15:33:19;5.10;;;4.00;;
20369;SDS011;10344;47.592;9.600;2023-03-08T15:35:48;4.15;;;3.75;;
20369;SDS011;10344;47.592;9.600;2023-03-08T15:38:15;4.38;;;3.70;;
20369;SDS011;10344;47.592;9.600;2023-03-08T15:40:52;3.83;;;3.30;;
20369;SDS011;10344;47.592;9.600;2023-03-08T15:43:25;4.00;;;3.17;;
20369;SDS011;10344;47.592;9.600;2023-03-08T15:45:53;4.53;;;3.70;;
20369;SDS011;10344;47.592;9.600;2023-03-08T15:48:19;4.47;;;3.60;;
20369;SDS011;10344;47.592;9.600;2023-03-08T15:50:52;4.10;;;3.33;;
20369;SDS011;10344;47.592;9.600;2023-03-08T15:53:27;3.83;;;3.25;;
20369;SDS011;10344;47.592;9.600;2023-03-08T15:55:54;3.53;;;3.10;;
20369;SDS011;10344;47.592;9.600;2023-03-08T15:58:23;4.13;;;3.40;;
20369;SDS011;10344;47.592;9.600;2023-03-08T16:00:49;3.90;;;3.30;;
20369;SDS011;10344;47.592;9.600;2023-03-08T16:03:16;4.38;;;3.90;;
20369;SDS011;10344;47.592;9.600;2023-03-08T16:05:49;5.22;;;3.72;;
20369;SDS011;10344;47.592;9.600;2023-03-08T16:08:15;4.93;;;4.10;;
20369;SDS011;10344;47.592;9.600;2023-03-08T16:10:41;4.40;;;3.97;;
20369;SDS011;10344;47.592;9.600;2023-03-08T16:13:16;4.38;;;3.67;;
20369;SDS011;10344;47.592;9.600;2023-03-08T16:15:43;5.28;;;4.15;;
20369;SDS011;10344;47.592;9.600;2023-03-08T16:18:15;4.25;;;3.85;;
20369;SDS011;10344;47.592;9.600;2023-03-08T16:20:41;4.60;;;3.75;;
20369;SDS011;10344;47.592;9.600;2023-03-08T16:23:11;4.90;;;3.53;;
20369;SDS011;10344;47.592;9.600;2023-03-08T16:25:40;4.60;;;3.50;;
20369;SDS011;10344;47.592;9.600;2023-03-08T16:28:07;3.60;;;3.25;;
20369;SDS011;10344;47.592;9.600;2023-03-08T16:30:39;2.60;;;2.30;;
20369;SDS011;10344;47.592;9.600;2023-03-08T16:33:06;2.40;;;2.15;;
20369;SDS011;10344;47.592;9.600;2023-03-08T16:35:35;2.27;;;1.90;;
20369;SDS011;10344;47.592;9.600;2023-03-08T16:38:00;1.60;;;1.50;;
20369;SDS011;10344;47.592;9.600;2023-03-08T16:40:28;1.73;;;1.57;;
20369;SDS011;10344;47.592;9.600;2023-03-08T16:43:04;1.30;;;1.20;;
20369;SDS011;10344;47.592;9.600;2023-03-08T16:45:29;1.30;;;1.10;;
20369;SDS011;10344;47.592;9.600;2023-03-08T16:48:01;0.80;;;0.80;;
20369;SDS011;10344;47.592;9.600;2023-03-08T16:50:37;1.00;;;1.00;;
20369;SDS011;10344;47.592;9.600;2023-03-08T16:53:03;1.30;;;1.05;;
20369;SDS011;10344;47.592;9.600;2023-03-08T16:55:34;0.63;;;0.63;;